Time;durP1;ratioP1;P1;durP2;ratioP2;P2;SDS_P1;SDS_P2;PMS_P1;PMS_P2;Temp;Humidity;BMP_temperature;BMP_pressure;BME280_temperature;BME280_humidity;BME280_pressure;Samples;Min_cycle;Max_cycle;Signal;HPM_P1;HPM_P2
2023/04/17 00:02:01;;;;;;;21.48;17.33;;;10.20;99.90;;;;;;5040383;28;20120;-42
2023/04/17 00:04:27;;;;;;;21.98;16.10;;;10.20;99.90;;;;;;5041015;28;20035;-45
2023/04/17 00:06:53;;;;;;;22.70;15.70;;;10.20;99.90;;;;;;5041195;28;20028;-42
2023/04/17 00:09:18;;;;;;;21.73;15.48;;;10.20;99.90;;;;;;5039534;28;20029;-33
2023/04/17 00:11:44;;;;;;;20.85;15.30;;;10.20;99.90;;;;;;5038607;28;20094;-33
2023/04/17 00:14:09;;;;;;;21.13;15.70;;;10.10;99.90;;;;;;5039739;28;20048;-34
2023/04/17 00:16:35;;;;;;;23.58;16.55;;;10.20;99.90;;;;;;5039099;28;20013;-32
2023/04/17 00:19:00;;;;;;;22.63;15.88;;;10.20;99.90;;;;;;5040518;28;20369;-34
2023/04/17 00:21:28;;;;;;;24.67;16.50;;;10.20;99.90;;;;;;5039953;28;20464;-32
2023/04/17 00:23:54;;;;;;;23.58;16.02;;;10.20;99.90;;;;;;5040154;28;20078;-32
2023/04/17 00:26:20;;;;;;;23.13;16.25;;;10.10;99.90;;;;;;5040656;28;20040;-32
2023/04/17 00:28:49;;;;;;;26.08;16.80;;;10.20;99.90;;;;;;5036398;28;20051;-33
2023/04/17 00:31:15;;;;;;;22.95;17.20;;;10.10;99.90;;;;;;5040981;28;20429;-34
2023/04/17 00:33:41;;;;;;;23.88;17.10;;;10.10;99.90;;;;;;5040161;28;20448;-32
2023/04/17 00:36:08;;;;;;;27.65;18.80;;;10.10;99.90;;;;;;5039580;28;20112;-34
2023/04/17 00:38:33;;;;;;;26.30;18.88;;;10.10;99.90;;;;;;5040178;28;20201;-33
2023/04/17 00:40:59;;;;;;;23.58;16.42;;;10.10;99.90;;;;;;5040865;28;20032;-33
2023/04/17 00:43:24;;;;;;;23.75;16.90;;;10.10;99.90;;;;;;5038966;28;20123;-31
2023/04/17 00:45:51;;;;;;;22.23;16.48;;;10.10;99.90;;;;;;5040212;28;20131;-44
2023/04/17 00:48:18;;;;;;;22.65;16.10;;;10.20;99.90;;;;;;5039822;28;20052;-43
2023/04/17 00:50:44;;;;;;;23.50;15.93;;;10.20;99.90;;;;;;5039534;28;20412;-43
2023/04/17 00:53:10;;;;;;;22.73;16.05;;;10.20;99.90;;;;;;5036818;28;20491;-43
2023/04/17 00:55:38;;;;;;;26.13;17.40;;;10.20;99.90;;;;;;5032031;28;20770;-43
2023/04/17 00:58:04;;;;;;;26.67;17.20;;;10.20;99.90;;;;;;5026346;28;20448;-42
2023/04/17 01:00:29;;;;;;;25.10;16.42;;;10.20;99.90;;;;;;5040238;28;20131;-44
2023/04/17 01:02:57;;;;;;;21.83;15.00;;;10.10;99.90;;;;;;5040365;28;20021;-43
2023/04/17 01:05:24;;;;;;;22.90;15.18;;;10.20;99.90;;;;;;5039709;28;20763;-43
2023/04/17 01:07:50;;;;;;;27.75;17.30;;;10.20;99.90;;;;;;5040257;28;20143;-43
2023/04/17 01:10:16;;;;;;;25.42;16.80;;;10.20;99.90;;;;;;5034553;28;20033;-42
2023/04/17 01:12:45;;;;;;;26.40;17.38;;;10.20;99.90;;;;;;5029067;28;20025;-42
2023/04/17 01:15:11;;;;;;;27.83;17.35;;;10.10;99.90;;;;;;5039636;28;20632;-43
2023/04/17 01:17:36;;;;;;;23.05;16.48;;;10.10;99.90;;;;;;5038656;28;20013;-45
2023/04/17 01:20:05;;;;;;;28.58;18.33;;;10.20;99.90;;;;;;5038411;28;20029;-43
2023/04/17 01:22:31;;;;;;;27.08;18.25;;;10.20;99.90;;;;;;5039705;28;20956;-43
2023/04/17 01:24:57;;;;;;;32.35;20.45;;;10.10;99.90;;;;;;5035679;28;20040;-43
2023/04/17 01:27:23;;;;;;;30.48;19.23;;;10.10;99.90;;;;;;5044603;28;20043;-44
2023/04/17 01:29:49;;;;;;;28.10;17.23;;;10.10;99.90;;;;;;5043828;28;20807;-46
2023/04/17 01:32:15;;;;;;;26.27;17.27;;;10.10;99.90;;;;;;5043072;28;20033;-44
2023/04/17 01:34:44;;;;;;;23.40;16.50;;;10.10;99.90;;;;;;5043131;28;20024;-33
2023/04/17 01:37:10;;;;;;;27.13;18.52;;;10.10;99.90;;;;;;5042916;28;20086;-34
2023/04/17 01:39:36;;;;;;;30.83;19.75;;;10.10;99.90;;;;;;5040620;28;20037;-33
2023/04/17 01:42:01;;;;;;;25.17;18.05;;;10.10;99.90;;;;;;5040621;28;20443;-33
2023/04/17 01:44:27;;;;;;;26.88;19.05;;;10.00;99.90;;;;;;5042973;28;20021;-44
2023/04/17 01:46:52;;;;;;;27.23;17.70;;;10.00;99.90;;;;;;5042965;28;20583;-44
2023/04/17 01:49:18;;;;;;;28.60;19.73;;;10.00;99.90;;;;;;5043892;28;20116;-44
2023/04/17 01:51:44;;;;;;;26.10;17.88;;;10.00;99.90;;;;;;5042154;28;20029;-43
2023/04/17 01:54:09;;;;;;;24.77;17.77;;;10.00;99.90;;;;;;5042804;28;20032;-43
2023/04/17 01:56:35;;;;;;;30.75;19.73;;;10.00;99.90;;;;;;5042995;28;20424;-43
2023/04/17 01:59:00;;;;;;;29.98;18.63;;;10.00;99.90;;;;;;5042087;28;20029;-43
2023/04/17 02:01:27;;;;;;;28.38;18.33;;;10.00;99.90;;;;;;5041825;28;20055;-43
2023/04/17 02:03:52;;;;;;;26.92;18.50;;;10.00;99.90;;;;;;5043049;28;20029;-43
2023/04/17 02:06:18;;;;;;;25.75;18.02;;;10.00;99.90;;;;;;5044089;28;20033;-43
2023/04/17 02:08:43;;;;;;;31.88;20.42;;;10.00;99.90;;;;;;5032033;28;20048;-43
2023/04/17 02:11:09;;;;;;;28.50;19.40;;;10.00;99.90;;;;;;5035413;28;20606;-43
2023/04/17 02:13:35;;;;;;;27.67;18.70;;;10.00;99.90;;;;;;5042830;28;20484;-42
2023/04/17 02:16:03;;;;;;;28.45;19.63;;;10.00;99.90;;;;;;5041532;28;20197;-44
2023/04/17 02:18:29;;;;;;;31.65;21.20;;;9.90;99.90;;;;;;5042987;28;20491;-42
2023/04/17 02:20:54;;;;;;;34.33;22.70;;;9.90;99.90;;;;;;5033883;28;20529;-44
2023/04/17 02:23:20;;;;;;;31.00;20.45;;;9.80;99.90;;;;;;5042752;28;20646;-43
2023/04/17 02:25:46;;;;;;;28.85;19.23;;;9.80;99.90;;;;;;5043037;28;20035;-43
2023/04/17 02:28:11;;;;;;;32.58;22.02;;;9.80;99.90;;;;;;5041852;28;20377;-44
2023/04/17 02:30:37;;;;;;;34.10;20.88;;;9.80;99.90;;;;;;5043316;28;20090;-43
2023/04/17 02:33:02;;;;;;;29.15;20.50;;;9.80;99.90;;;;;;5043149;28;20025;-42
2023/04/17 02:35:30;;;;;;;35.25;23.15;;;9.80;99.90;;;;;;5042406;28;20061;-45
2023/04/17 02:37:55;;;;;;;32.92;21.50;;;9.80;99.90;;;;;;5040907;28;20033;-47
2023/04/17 02:40:21;;;;;;;28.50;19.70;;;9.70;99.90;;;;;;5042544;28;20033;-42
2023/04/17 02:42:47;;;;;;;33.20;22.05;;;9.70;99.90;;;;;;5038534;28;20171;-44
2023/04/17 02:45:12;;;;;;;29.52;21.55;;;9.70;99.90;;;;;;5042633;28;20052;-42
2023/04/17 02:47:38;;;;;;;31.67;20.85;;;9.70;99.90;;;;;;5036568;28;20618;-44
2023/04/17 02:50:04;;;;;;;31.27;21.23;;;9.70;99.90;;;;;;5039881;28;20052;-43
2023/04/17 02:52:31;;;;;;;31.77;22.60;;;9.80;99.90;;;;;;5042293;28;20853;-43
2023/04/17 02:54:56;;;;;;;33.65;22.30;;;9.70;99.90;;;;;;5041512;28;20081;-42
2023/04/17 02:57:25;;;;;;;29.45;20.52;;;9.70;99.90;;;;;;5041998;28;20054;-43
2023/04/17 02:59:51;;;;;;;33.63;22.38;;;9.70;99.90;;;;;;5042170;28;20074;-43
2023/04/17 03:02:20;;;;;;;32.10;21.52;;;9.70;99.90;;;;;;5041996;28;20750;-44
2023/04/17 03:04:48;;;;;;;38.33;22.45;;;9.70;99.90;;;;;;5041215;28;20079;-42
2023/04/17 03:07:17;;;;;;;32.80;22.45;;;9.70;99.90;;;;;;5041568;28;20480;-42
2023/04/17 03:09:46;;;;;;;30.52;20.33;;;9.60;99.90;;;;;;5022916;28;20213;-43
2023/04/17 03:12:13;;;;;;;35.47;21.63;;;9.70;99.90;;;;;;5025256;28;20032;-43
2023/04/17 03:14:39;;;;;;;34.72;21.23;;;9.70;99.90;;;;;;5041775;28;20024;-43
2023/04/17 03:17:05;;;;;;;31.08;20.48;;;9.60;99.90;;;;;;5041349;28;20091;-44
2023/04/17 03:19:31;;;;;;;30.02;19.77;;;9.60;99.90;;;;;;5041673;28;20499;-44
2023/04/17 03:21:56;;;;;;;33.75;21.52;;;9.60;99.90;;;;;;5042165;28;20120;-44
2023/04/17 03:24:22;;;;;;;33.63;21.00;;;9.60;99.90;;;;;;5041252;28;20388;-44
2023/04/17 03:26:48;;;;;;;29.08;19.55;;;9.70;99.90;;;;;;5039580;28;20603;-43
2023/04/17 03:29:13;;;;;;;33.60;21.25;;;9.60;99.90;;;;;;5041908;28;20036;-44
2023/04/17 03:31:39;;;;;;;33.80;21.45;;;9.60;99.90;;;;;;5040519;28;20032;-42
2023/04/17 03:34:04;;;;;;;29.30;21.50;;;9.60;99.90;;;;;;5041932;28;20117;-43
2023/04/17 03:36:30;;;;;;;34.03;21.67;;;9.60;99.90;;;;;;5033754;28;20044;-43
2023/04/17 03:38:56;;;;;;;33.08;21.17;;;9.60;99.90;;;;;;5031872;28;20039;-43
2023/04/17 03:41:22;;;;;;;33.30;21.35;;;9.60;99.90;;;;;;5042068;28;20055;-44
2023/04/17 03:43:48;;;;;;;31.48;20.60;;;9.60;99.90;;;;;;5041170;28;20104;-43
2023/04/17 03:46:20;;;;;;;30.67;20.70;;;9.60;99.90;;;;;;5031008;28;20147;-43
2023/04/17 03:48:48;;;;;;;36.38;21.38;;;9.60;99.90;;;;;;5036856;28;20073;-43
2023/04/17 03:51:15;;;;;;;31.38;20.42;;;9.60;99.90;;;;;;5040710;28;20048;-43
2023/04/17 03:53:40;;;;;;;33.13;22.38;;;9.60;99.90;;;;;;5039773;28;20036;-44
2023/04/17 03:56:06;;;;;;;33.38;22.42;;;9.60;99.90;;;;;;5041135;28;20088;-32
2023/04/17 03:58:32;;;;;;;33.55;20.95;;;9.60;99.90;;;;;;5041029;28;20029;-32
2023/04/17 04:01:00;;;;;;;36.15;22.20;;;9.50;99.90;;;;;;5040924;28;20110;-32
2023/04/17 04:03:27;;;;;;;37.60;21.17;;;9.50;99.90;;;;;;5038315;28;20164;-43
2023/04/17 04:05:52;;;;;;;34.83;22.70;;;9.50;99.90;;;;;;5040157;28;20036;-44
2023/04/17 04:08:18;;;;;;;32.90;22.40;;;9.50;99.90;;;;;;5040914;28;20385;-43
2023/04/17 04:10:44;;;;;;;30.13;19.55;;;9.40;99.90;;;;;;5040186;28;20081;-44
2023/04/17 04:13:10;;;;;;;32.95;21.42;;;9.50;99.90;;;;;;5042067;28;20027;-44
2023/04/17 04:15:36;;;;;;;30.33;20.38;;;9.40;99.90;;;;;;5039878;28;20033;-42
2023/04/17 04:18:01;;;;;;;34.03;22.00;;;9.40;99.90;;;;;;5040599;28;20371;-42
2023/04/17 04:20:27;;;;;;;30.60;20.60;;;9.40;99.90;;;;;;5040539;28;20032;-43
2023/04/17 04:22:56;;;;;;;33.78;21.45;;;9.40;99.90;;;;;;5039336;28;20032;-43
2023/04/17 04:25:22;;;;;;;33.75;21.55;;;9.40;99.90;;;;;;5040850;28;20029;-43
2023/04/17 04:27:48;;;;;;;30.25;19.88;;;9.40;99.90;;;;;;5040140;28;20308;-43
2023/04/17 04:30:15;;;;;;;29.15;19.48;;;9.40;99.90;;;;;;5040410;28;20021;-43
2023/04/17 04:32:41;;;;;;;30.55;19.83;;;9.50;99.90;;;;;;5035786;28;20035;-42
2023/04/17 04:35:08;;;;;;;27.35;18.67;;;9.40;99.90;;;;;;5039458;28;20070;-43
2023/04/17 04:37:34;;;;;;;31.48;20.67;;;9.50;99.90;;;;;;5041080;28;20025;-43
2023/04/17 04:40:05;;;;;;;27.85;18.88;;;9.50;99.90;;;;;;5039167;28;20040;-42
2023/04/17 04:42:30;;;;;;;30.15;19.65;;;9.50;99.90;;;;;;5040027;28;20029;-43
2023/04/17 04:44:56;;;;;;;30.73;19.70;;;9.50;99.90;;;;;;5040324;28;20059;-42
2023/04/17 04:47:21;;;;;;;28.00;19.75;;;9.50;99.90;;;;;;5040646;28;20076;-43
2023/04/17 04:49:47;;;;;;;32.40;21.55;;;9.50;99.90;;;;;;5040247;28;20405;-43
2023/04/17 04:52:12;;;;;;;28.83;20.30;;;9.40;99.90;;;;;;5041253;28;20545;-43
2023/04/17 04:54:38;;;;;;;29.77;19.13;;;9.50;99.90;;;;;;5040040;28;20750;-42
2023/04/17 04:57:03;;;;;;;29.20;19.60;;;9.50;99.90;;;;;;5038878;28;20531;-43
2023/04/17 04:59:29;;;;;;;29.77;19.67;;;9.50;99.90;;;;;;5035049;28;20064;-43
2023/04/17 05:01:55;;;;;;;33.60;22.65;;;9.50;99.90;;;;;;5035451;28;20029;-42
2023/04/17 05:04:21;;;;;;;31.65;20.77;;;9.50;99.90;;;;;;5039535;28;20035;-43
2023/04/17 05:06:46;;;;;;;27.70;19.13;;;9.50;99.90;;;;;;5039104;28;20021;-44
2023/04/17 05:09:12;;;;;;;31.85;21.02;;;9.50;99.90;;;;;;5040640;28;20582;-44
2023/04/17 05:11:37;;;;;;;31.88;20.92;;;9.50;99.90;;;;;;5038922;28;20100;-43
2023/04/17 05:14:06;;;;;;;32.78;21.38;;;9.40;99.90;;;;;;5036297;28;20021;-44
2023/04/17 05:16:31;;;;;;;31.67;21.35;;;9.40;99.90;;;;;;5025975;28;20143;-44
2023/04/17 05:18:57;;;;;;;33.25;21.77;;;9.50;99.90;;;;;;5038679;28;20029;-44
2023/04/17 05:21:23;;;;;;;30.80;20.55;;;9.40;99.90;;;;;;5039312;28;20033;-42
2023/04/17 05:23:48;;;;;;;30.48;19.63;;;9.40;99.90;;;;;;5039366;28;20021;-43
2023/04/17 05:26:14;;;;;;;29.73;20.20;;;9.50;99.90;;;;;;5039175;28;20065;-33
2023/04/17 05:28:39;;;;;;;31.70;20.33;;;9.50;99.90;;;;;;5039979;28;20105;-42
2023/04/17 05:31:05;;;;;;;29.67;19.73;;;9.50;99.90;;;;;;5038371;28;20032;-43
2023/04/17 05:33:31;;;;;;;33.17;20.70;;;9.50;99.90;;;;;;5038923;28;20113;-44
2023/04/17 05:35:56;;;;;;;28.23;19.48;;;9.50;99.90;;;;;;5032441;28;20041;-43
2023/04/17 05:38:22;;;;;;;33.78;21.25;;;9.50;99.90;;;;;;5034217;28;20338;-44
2023/04/17 05:40:48;;;;;;;32.88;21.60;;;9.60;99.90;;;;;;5039149;28;20086;-42
2023/04/17 05:43:13;;;;;;;32.80;21.55;;;9.50;99.90;;;;;;5039380;28;20054;-43
2023/04/17 05:45:40;;;;;;;34.03;22.25;;;9.60;99.90;;;;;;5033282;28;20036;-40
2023/04/17 05:48:05;;;;;;;30.50;20.00;;;9.60;99.90;;;;;;5040033;28;20063;-43
2023/04/17 05:50:31;;;;;;;32.50;20.75;;;9.60;99.90;;;;;;5034187;28;20509;-42
2023/04/17 05:52:57;;;;;;;32.67;20.52;;;9.60;99.90;;;;;;5026095;28;20216;-43
2023/04/17 05:55:22;;;;;;;33.03;20.75;;;9.70;99.90;;;;;;5033060;28;20041;-43
2023/04/17 05:57:48;;;;;;;28.15;18.65;;;9.70;99.90;;;;;;5023281;28;20099;-43
2023/04/17 06:00:14;;;;;;;27.13;19.15;;;9.80;99.90;;;;;;5038118;28;20516;-43
2023/04/17 06:02:41;;;;;;;28.63;20.25;;;9.80;99.90;;;;;;5039232;28;20029;-43
2023/04/17 06:05:07;;;;;;;28.38;19.45;;;9.80;99.90;;;;;;5038793;28;20150;-45
2023/04/17 06:07:33;;;;;;;26.95;19.08;;;9.80;99.90;;;;;;5038013;28;20461;-42
2023/04/17 06:10:00;;;;;;;29.85;20.48;;;9.80;99.90;;;;;;5036831;28;20036;-42
2023/04/17 06:12:25;;;;;;;30.73;20.80;;;9.80;99.90;;;;;;5029305;28;20115;-43
2023/04/17 06:14:51;;;;;;;26.13;18.52;;;9.90;99.90;;;;;;5037816;28;20025;-43
2023/04/17 06:17:16;;;;;;;28.02;20.40;;;9.90;99.90;;;;;;5044182;28;20776;-43
2023/04/17 06:19:42;;;;;;;30.40;20.10;;;9.90;99.90;;;;;;5042071;28;20856;-43
2023/04/17 06:22:08;;;;;;;29.05;19.60;;;9.90;99.90;;;;;;5042006;28;20546;-43
2023/04/17 06:24:33;;;;;;;32.78;20.23;;;9.90;99.90;;;;;;5038585;28;20460;-44
2023/04/17 06:26:59;;;;;;;32.35;22.00;;;9.90;99.90;;;;;;5042815;28;20090;-43
2023/04/17 06:29:24;;;;;;;29.17;20.02;;;9.90;99.90;;;;;;5042262;28;20032;-42
2023/04/17 06:31:50;;;;;;;30.58;20.17;;;9.90;99.90;;;;;;5043203;28;20063;-42
2023/04/17 06:34:15;;;;;;;28.50;19.52;;;9.90;99.90;;;;;;5041253;28;20054;-44
2023/04/17 06:36:41;;;;;;;31.15;20.35;;;10.00;99.90;;;;;;5021766;28;20037;-42
2023/04/17 06:39:06;;;;;;;25.73;17.30;;;10.00;99.90;;;;;;5038908;28;20134;-42
2023/04/17 06:41:32;;;;;;;31.00;21.50;;;10.00;99.90;;;;;;5030592;28;20041;-43
2023/04/17 06:44:10;;;;;;;30.55;20.65;;;10.00;99.90;;;;;;5033512;28;20164;-44
2023/04/17 06:46:35;;;;;;;26.58;19.33;;;10.00;99.90;;;;;;5036319;28;20045;-43
2023/04/17 06:49:01;;;;;;;28.70;19.52;;;10.00;99.90;;;;;;5039064;28;20098;-44
2023/04/17 06:51:28;;;;;;;23.92;17.90;;;10.00;99.90;;;;;;5042390;28;20116;-43
2023/04/17 06:53:53;;;;;;;31.00;21.75;;;10.00;99.90;;;;;;5042490;28;20033;-44
2023/04/17 06:56:19;;;;;;;30.23;21.38;;;10.00;99.90;;;;;;5042009;28;20029;-43
2023/04/17 06:58:45;;;;;;;32.15;21.80;;;10.10;99.90;;;;;;5042570;28;20021;-43
2023/04/17 07:01:11;;;;;;;28.95;19.85;;;10.10;99.90;;;;;;5042389;28;20045;-43
2023/04/17 07:03:41;;;;;;;38.55;23.58;;;10.10;99.90;;;;;;5041260;28;20028;-43
2023/04/17 07:06:07;;;;;;;33.60;21.80;;;10.10;99.90;;;;;;5041586;28;20044;-43
2023/04/17 07:08:33;;;;;;;35.58;22.77;;;10.10;99.90;;;;;;5042413;28;20021;-43
2023/04/17 07:10:58;;;;;;;32.75;23.17;;;10.10;99.90;;;;;;5041464;28;20016;-44
2023/04/17 07:13:25;;;;;;;36.22;24.33;;;10.10;99.90;;;;;;5042150;28;20040;-44
2023/04/17 07:15:55;;;;;;;37.72;24.75;;;10.10;99.90;;;;;;5040918;28;20028;-44
2023/04/17 07:18:21;;;;;;;37.80;24.92;;;10.10;99.90;;;;;;5040674;28;20108;-44
2023/04/17 07:20:47;;;;;;;34.13;23.17;;;10.10;99.90;;;;;;5040501;28;20134;-43
2023/04/17 07:23:14;;;;;;;36.03;23.25;;;10.10;99.90;;;;;;5040496;28;20037;-43
2023/04/17 07:25:39;;;;;;;34.75;22.75;;;10.20;99.90;;;;;;5040979;28;20028;-43
2023/04/17 07:28:05;;;;;;;34.47;23.50;;;10.20;99.90;;;;;;5041880;28;20521;-44
2023/04/17 07:30:31;;;;;;;32.28;20.67;;;10.30;99.90;;;;;;5040062;28;20028;-44
2023/04/17 07:32:57;;;;;;;30.40;20.55;;;10.40;99.90;;;;;;5040842;28;20052;-44
2023/04/17 07:35:22;;;;;;;33.80;22.77;;;10.40;99.90;;;;;;5041817;28;20028;-44
2023/04/17 07:37:51;;;;;;;34.55;23.50;;;10.50;99.90;;;;;;5040224;28;20496;-43
2023/04/17 07:40:16;;;;;;;34.90;22.88;;;10.50;99.90;;;;;;5042142;28;20468;-44
2023/04/17 07:42:42;;;;;;;42.15;26.17;;;10.60;99.90;;;;;;5040474;28;20033;-43
2023/04/17 07:45:09;;;;;;;35.58;25.23;;;10.60;99.90;;;;;;5040625;28;20064;-44
2023/04/17 07:47:35;;;;;;;40.83;26.20;;;10.60;99.90;;;;;;5041544;28;20191;-43
2023/04/17 07:50:00;;;;;;;35.38;25.02;;;10.60;99.90;;;;;;5041077;28;20464;-44
2023/04/17 07:52:26;;;;;;;34.95;23.35;;;10.70;99.90;;;;;;5040002;28;20021;-43
2023/04/17 07:54:51;;;;;;;37.58;26.60;;;10.70;99.90;;;;;;5041505;28;20029;-43
2023/04/17 07:57:17;;;;;;;39.45;25.85;;;10.70;99.90;;;;;;5040873;28;20032;-45
2023/04/17 07:59:43;;;;;;;35.50;25.08;;;10.80;99.90;;;;;;5039976;28;20086;-43
2023/04/17 08:02:09;;;;;;;35.20;25.35;;;10.80;99.90;;;;;;5040373;28;20078;-43
2023/04/17 08:04:34;;;;;;;38.15;26.15;;;10.90;99.90;;;;;;5040623;28;20029;-44
2023/04/17 08:07:03;;;;;;;37.28;24.85;;;10.90;99.90;;;;;;5040117;28;20028;-43
2023/04/17 08:09:28;;;;;;;28.95;20.48;;;10.90;99.90;;;;;;5040783;28;20031;-42
2023/04/17 08:11:55;;;;;;;35.75;24.15;;;10.90;99.90;;;;;;5039448;28;20036;-44
2023/04/17 08:14:20;;;;;;;39.70;27.45;;;11.00;99.90;;;;;;5040461;28;20027;-43
2023/04/17 08:16:46;;;;;;;37.75;26.52;;;11.00;99.90;;;;;;5041055;28;20024;-43
2023/04/17 08:19:12;;;;;;;41.63;27.85;;;10.90;99.90;;;;;;5041434;28;20542;-43
2023/04/17 08:21:38;;;;;;;40.88;27.58;;;10.90;99.90;;;;;;5040279;28;20037;-43
2023/04/17 08:24:04;;;;;;;38.47;25.95;;;10.90;99.90;;;;;;5039425;28;20043;-44
2023/04/17 08:26:29;;;;;;;36.22;25.35;;;10.80;99.90;;;;;;5039737;28;20029;-45
2023/04/17 08:28:55;;;;;;;38.55;26.65;;;10.80;99.90;;;;;;5038902;28;20388;-43
2023/04/17 08:31:20;;;;;;;39.45;25.55;;;10.80;99.90;;;;;;5039973;28;20468;-43
2023/04/17 08:33:46;;;;;;;43.50;29.25;;;10.70;99.90;;;;;;5039834;28;20047;-44
2023/04/17 08:36:12;;;;;;;38.38;26.90;;;10.80;99.90;;;;;;5040616;28;20502;-42
2023/04/17 08:38:37;;;;;;;35.90;24.73;;;10.80;99.90;;;;;;5039002;28;20029;-43
2023/04/17 08:41:07;;;;;;;35.22;25.90;;;10.90;99.90;;;;;;5039804;28;20071;-42
2023/04/17 08:43:34;;;;;;;36.47;25.38;;;11.00;99.90;;;;;;5040749;28;20021;-44
2023/04/17 08:46:01;;;;;;;37.63;26.58;;;11.20;99.90;;;;;;5040512;28;20124;-44
2023/04/17 08:48:27;;;;;;;35.83;27.08;;;11.40;99.90;;;;;;5039588;28;20045;-43
2023/04/17 08:50:53;;;;;;;38.15;26.88;;;11.50;99.90;;;;;;5040232;28;20028;-43
2023/04/17 08:53:19;;;;;;;36.83;26.55;;;11.60;99.90;;;;;;5040143;28;20021;-48
2023/04/17 08:55:46;;;;;;;38.53;27.52;;;11.80;99.90;;;;;;5039215;28;20031;-45
2023/04/17 08:58:13;;;;;;;34.13;24.65;;;11.90;99.90;;;;;;5040519;28;20025;-44
2023/04/17 09:00:41;;;;;;;39.42;26.75;;;12.10;99.90;;;;;;5039637;28;20033;-44
2023/04/17 09:03:12;;;;;;;39.97;27.90;;;12.20;99.90;;;;;;5038894;28;20577;-44
2023/04/17 09:05:41;;;;;;;41.78;27.55;;;12.20;99.90;;;;;;5039888;28;20041;-44
2023/04/17 09:08:22;;;;;;;38.78;27.63;;;12.30;99.90;;;;;;5039839;28;20104;-44
2023/04/17 09:10:50;;;;;;;39.05;27.25;;;12.40;99.90;;;;;;5038985;28;20384;-44
2023/04/17 09:13:18;;;;;;;39.03;27.83;;;12.50;99.90;;;;;;5040536;28;20024;-44
2023/04/17 09:15:45;;;;;;;34.45;25.45;;;12.50;99.90;;;;;;5039896;28;20052;-44
2023/04/17 09:18:27;;;;;;;39.42;28.95;;;12.50;99.90;;;;;;5038613;28;20020;-44
2023/04/17 09:20:53;;;;;;;36.38;26.92;;;12.60;99.90;;;;;;5039359;28;20029;-45
2023/04/17 09:23:24;;;;;;;39.42;27.15;;;12.70;99.90;;;;;;5053822;28;20399;-43
2023/04/17 09:26:10;;;;;;;35.70;25.45;;;12.80;99.90;;;;;;5045949;28;20025;-43
2023/04/17 09:28:40;;;;;;;36.33;25.90;;;12.90;99.90;;;;;;5039993;28;20123;-43
2023/04/17 09:31:17;;;;;;;32.30;24.30;;;12.90;99.90;;;;;;5038791;28;20765;-42
2023/04/17 09:34:03;;;;;;;37.28;25.42;;;13.00;99.90;;;;;;5038789;28;20037;-43
2023/04/17 09:36:31;;;;;;;30.58;24.05;;;13.00;99.90;;;;;;5038198;28;20456;-45
2023/04/17 09:39:19;;;;;;;36.45;25.50;;;13.10;99.90;;;;;;5038105;28;20075;-44
2023/04/17 09:41:45;;;;;;;32.75;24.08;;;13.10;99.90;;;;;;5039221;28;20033;-43
2023/04/17 09:44:11;;;;;;;31.65;23.83;;;13.10;99.90;;;;;;5038625;28;20045;-44
2023/04/17 09:46:37;;;;;;;30.02;21.88;;;13.20;99.90;;;;;;5040937;28;20128;-43
2023/04/17 09:49:14;;;;;;;30.17;23.17;;;13.20;99.90;;;;;;5043225;28;20048;-43
2023/04/17 09:51:40;;;;;;;30.67;21.67;;;13.30;99.90;;;;;;5043293;28;20039;-43
2023/04/17 09:54:08;;;;;;;33.30;23.65;;;13.20;99.90;;;;;;5043185;28;20032;-44
2023/04/17 09:56:35;;;;;;;35.63;25.63;;;13.20;99.90;;;;;;5043199;28;20025;-43
2023/04/17 09:59:05;;;;;;;31.90;23.80;;;13.20;99.90;;;;;;5043055;28;20033;-43
2023/04/17 10:01:39;;;;;;;31.33;23.67;;;13.10;99.90;;;;;;5042772;28;20029;-43
2023/04/17 10:04:05;;;;;;;29.38;23.23;;;13.10;99.90;;;;;;5043250;28;20679;-44
2023/04/17 10:06:32;;;;;;;29.73;20.77;;;13.10;99.90;;;;;;5042588;28;20049;-44
2023/04/17 10:08:57;;;;;;;28.92;21.63;;;13.10;99.90;;;;;;5043185;28;20167;-43
2023/04/17 10:11:26;;;;;;;26.90;19.85;;;13.20;99.90;;;;;;5043257;28;20472;-44
2023/04/17 10:14:10;;;;;;;28.30;21.88;;;13.20;99.90;;;;;;5031538;28;20017;-43
2023/04/17 10:16:37;;;;;;;26.48;20.30;;;13.20;99.90;;;;;;5042671;28;20021;-43
2023/04/17 10:19:30;;;;;;;25.23;17.90;;;13.30;99.90;;;;;;5043614;28;20518;-43
2023/04/17 10:22:14;;;;;;;25.70;18.83;;;13.30;99.90;;;;;;5043202;28;20564;-44
2023/04/17 10:24:44;;;;;;;25.88;18.35;;;13.40;99.90;;;;;;5042921;28;20211;-44
2023/04/17 10:27:25;;;;;;;24.08;18.05;;;13.40;99.90;;;;;;5042016;28;20036;-44
2023/04/17 10:29:59;;;;;;;24.48;19.48;;;13.40;99.90;;;;;;5043261;28;20033;-44
2023/04/17 10:32:27;;;;;;;31.65;19.30;;;13.50;99.90;;;;;;5042631;28;20107;-43
2023/04/17 10:34:58;;;;;;;23.67;18.25;;;13.50;99.90;;;;;;5041951;28;20809;-43
2023/04/17 10:37:46;;;;;;;21.85;16.65;;;13.60;99.90;;;;;;5042671;28;20029;-44
2023/04/17 10:40:19;;;;;;;25.27;19.13;;;13.70;99.90;;;;;;5039478;28;20037;-43
2023/04/17 10:43:03;;;;;;;;;;;13.80;99.90;;;;;;5041532;28;20103;-43
2023/04/17 10:46:00;;;;;;;21.70;16.50;;;14.00;99.90;;;;;;5041256;28;20604;-44
2023/04/17 10:48:44;;;;;;;20.35;15.38;;;14.00;99.90;;;;;;5040722;28;20053;-43
2023/04/17 10:51:27;;;;;;;20.38;15.82;;;14.10;99.90;;;;;;5040976;28;20043;-44
2023/04/17 10:53:57;;;;;;;20.05;15.60;;;14.20;99.90;;;;;;5042175;28;20484;-43
2023/04/17 10:56:38;;;;;;;21.52;15.45;;;14.30;99.90;;;;;;5041396;28;20102;-43
2023/04/17 10:59:04;;;;;;;22.48;16.42;;;14.40;99.90;;;;;;5041681;28;20025;-43
2023/04/17 11:01:48;;;;;;;21.52;16.10;;;14.50;99.90;;;;;;5041666;28;20029;-44
2023/04/17 11:04:26;;;;;;;21.45;16.30;;;14.60;99.90;;;;;;5041622;28;20538;-44
2023/04/17 11:06:52;;;;;;;23.60;16.40;;;14.60;99.90;;;;;;5042035;28;20055;-43
2023/04/17 11:09:20;;;;;;;20.02;15.70;;;14.60;99.90;;;;;;5041354;28;20108;-42
2023/04/17 11:11:46;;;;;;;19.80;15.63;;;14.70;99.90;;;;;;5041940;28;20037;-44
2023/04/17 11:14:14;;;;;;;18.23;14.75;;;14.70;99.90;;;;;;5042097;28;20017;-43
2023/04/17 11:16:41;;;;;;;21.92;17.15;;;14.80;99.90;;;;;;5035171;28;20107;-44
2023/04/17 11:19:08;;;;;;;20.63;16.80;;;14.80;99.90;;;;;;5030730;28;20020;-44
2023/04/17 11:21:38;;;;;;;20.25;17.23;;;14.90;99.90;;;;;;5041495;28;20538;-43
2023/04/17 11:24:04;;;;;;;21.20;14.70;;;15.00;99.90;;;;;;5040841;28;20017;-44
2023/04/17 11:26:30;;;;;;;17.58;14.93;;;15.10;99.90;;;;;;5040443;28;20040;-43
2023/04/17 11:28:55;;;;;;;19.88;15.32;;;15.30;99.90;;;;;;5041380;28;20028;-43
2023/04/17 11:31:21;;;;;;;19.75;15.15;;;15.30;99.90;;;;;;5041438;28;20029;-44
2023/04/17 11:33:47;;;;;;;19.38;14.88;;;15.40;99.90;;;;;;5041166;28;20031;-44
2023/04/17 11:36:12;;;;;;;19.23;14.85;;;15.40;99.90;;;;;;5041275;28;20029;-44
2023/04/17 11:38:46;;;;;;;17.13;13.80;;;15.40;99.90;;;;;;5040754;28;20036;-44
2023/04/17 11:41:12;;;;;;;19.00;14.60;;;15.50;99.90;;;;;;5040256;28;20758;-43
2023/04/17 11:43:38;;;;;;;15.00;12.35;;;15.50;99.90;;;;;;5041493;28;20016;-43
2023/04/17 11:46:04;;;;;;;17.65;13.98;;;15.50;99.90;;;;;;5040440;28;20045;-45
2023/04/17 11:48:31;;;;;;;17.13;14.23;;;15.60;99.90;;;;;;5041142;28;20117;-44
2023/04/17 11:51:02;;;;;;;17.75;13.35;;;15.60;99.90;;;;;;5039532;28;20746;-43
2023/04/17 11:53:29;;;;;;;16.10;12.90;;;15.50;99.90;;;;;;5031252;28;20051;-44
2023/04/17 11:56:13;;;;;;;16.00;12.32;;;15.50;99.90;;;;;;5039558;28;20033;-44
2023/04/17 11:58:49;;;;;;;18.95;14.77;;;15.50;99.90;;;;;;5019816;28;20081;-43
2023/04/17 12:01:16;;;;;;;16.60;12.80;;;15.50;99.90;;;;;;5036212;28;20132;-44
2023/04/17 12:03:41;;;;;;;14.27;12.32;;;15.50;99.90;;;;;;5040057;28;20420;-47
2023/04/17 12:06:07;;;;;;;15.50;12.80;;;15.60;99.90;;;;;;5039483;28;20476;-44
2023/04/17 12:08:46;;;;;;;14.82;12.95;;;15.60;99.90;;;;;;5041532;28;20074;-44
2023/04/17 12:11:21;;;;;;;16.17;12.82;;;15.50;99.90;;;;;;5040693;28;20029;-43
2023/04/17 12:13:47;;;;;;;15.00;12.43;;;15.60;99.90;;;;;;5039150;28;20034;-43
2023/04/17 12:16:12;;;;;;;17.13;12.57;;;15.60;99.90;;;;;;5040647;28;20809;-43
2023/04/17 12:18:38;;;;;;;17.30;12.95;;;15.50;99.90;;;;;;5040258;28;20021;-43
2023/04/17 12:21:03;;;;;;;13.70;12.10;;;15.40;99.90;;;;;;5039990;28;20040;-43
2023/04/17 12:23:29;;;;;;;18.15;14.05;;;15.40;99.90;;;;;;5040658;28;20029;-44
2023/04/17 12:25:55;;;;;;;18.48;14.57;;;15.40;99.90;;;;;;5039971;28;20094;-43
2023/04/17 12:28:21;;;;;;;16.88;13.10;;;15.50;99.80;;;;;;5040357;28;20471;-44
2023/04/17 12:30:46;;;;;;;18.13;12.98;;;15.70;99.80;;;;;;5039854;28;20043;-44
2023/04/17 12:33:12;;;;;;;17.40;12.82;;;15.70;98.80;;;;;;5038721;28;20217;-43